createdAt,value
2022-09-20T00:01:05.916Z,70.29482
2022-09-20T00:06:07.630Z,71.48486
2022-09-20T00:11:09.327Z,72.67698
2022-09-20T00:16:11.263Z,73.46916
2022-09-20T00:21:12.948Z,74.70329
2022-09-20T00:26:14.795Z,74.27945
2022-09-20T00:31:16.481Z,77.08937
2022-09-20T00:36:18.146Z,75.80009
2022-09-20T00:41:19.906Z,74.59345
2022-09-20T00:46:21.934Z,77.83501
2022-09-20T00:51:23.736Z,76.1165
2022-09-20T00:56:25.448Z,75.14547
2022-09-20T01:01:27.255Z,76.02739
2022-09-20T01:06:29.083Z,76.72153
2022-09-20T01:11:30.846Z,76.55104
2022-09-20T01:16:33.741Z,78.03464
2022-09-20T01:21:35.561Z,75.30273
2022-09-20T01:26:37.309Z,75.15603
2022-09-20T01:31:39.331Z,76.05418
2022-09-20T01:36:41.119Z,79.59106
2022-09-20T01:41:42.845Z,77.06515
2022-09-20T01:46:44.878Z,75.37045
2022-09-20T01:51:46.613Z,77.42239
2022-09-20T01:56:48.335Z,76.53856
2022-09-20T02:01:49.866Z,77.08902
2022-09-20T02:06:51.619Z,77.43279
2022-09-20T02:11:53.321Z,76.75283
2022-09-20T02:16:55.130Z,76.80988
2022-09-20T02:21:56.778Z,77.29097
2022-09-20T02:26:58.260Z,76.32442
2022-09-20T02:31:59.811Z,75.61784
2022-09-20T02:37:01.391Z,76.3321
2022-09-20T02:42:03.051Z,76.64812
2022-09-20T02:47:04.708Z,75.38251
2022-09-20T02:52:06.221Z,77.04963
2022-09-20T02:57:07.824Z,74.41384
2022-09-20T03:02:09.665Z,74.4904
2022-09-20T03:07:11.206Z,74.22467
2022-09-20T03:12:12.733Z,73.95777
2022-09-20T03:17:15.309Z,76.14989
2022-09-20T03:22:17.019Z,77.52037
2022-09-20T03:27:18.668Z,74.70187
2022-09-20T03:32:20.430Z,77.88182
2022-09-20T03:37:22.055Z,75.11201
2022-09-20T03:42:23.779Z,75.53867
2022-09-20T03:47:25.699Z,77.40503
2022-09-20T03:52:27.350Z,76.73076
2022-09-20T03:57:28.844Z,77.01564
2022-09-20T04:02:30.491Z,76.06357
2022-09-20T04:07:32.160Z,76.33682
2022-09-20T04:12:33.928Z,76.99417
2022-09-20T04:17:35.905Z,75.72906
2022-09-20T04:22:37.695Z,78.87466
2022-09-20T04:27:39.440Z,79.4635
2022-09-20T04:32:41.353Z,75.28277
2022-09-20T04:37:43.066Z,77.28751
2022-09-20T04:42:44.802Z,76.14282
2022-09-20T04:47:46.766Z,77.73134
2022-09-20T04:52:48.484Z,79.63258
2022-09-20T04:57:50.295Z,82.74498
2022-09-20T05:02:52.066Z,79.13676
2022-09-20T05:07:53.820Z,82.3701
2022-09-20T05:12:55.256Z,80.33176
2022-09-20T05:17:57.053Z,83.13364
2022-09-20T05:22:58.501Z,80.82739
2022-09-20T05:27:59.947Z,82.53756
2022-09-20T05:33:01.692Z,79.03436
2022-09-20T05:38:03.238Z,75.27446
2022-09-20T05:43:04.668Z,82.33371
2022-09-20T05:48:06.797Z,81.94001
2022-09-20T05:53:08.534Z,79.71613
2022-09-20T05:58:10.295Z,85.06874
2022-09-20T06:03:12.044Z,81.63647
2022-09-20T06:08:13.496Z,79.3472
2022-09-20T06:13:15.216Z,79.05127
2022-09-20T06:18:17.596Z,80.49062
2022-09-20T06:23:19.041Z,76.72925
2022-09-20T06:28:20.575Z,77.09709
2022-09-20T06:33:22.100Z,72.31342
2022-09-20T06:38:23.660Z,69.75301
2022-09-20T06:43:25.107Z,66.86332
2022-09-20T06:48:27.489Z,72.09617
2022-09-20T06:53:29.261Z,73.90005
2022-09-20T06:58:30.764Z,69.14965
2022-09-20T07:03:32.357Z,67.99074
2022-09-20T07:08:33.798Z,66.05609
2022-09-20T07:13:35.606Z,65.91067
2022-09-20T07:18:37.701Z,61.97362
2022-09-20T07:23:39.469Z,60.72764
2022-09-20T07:28:41.215Z,61.81435
2022-09-20T07:33:42.983Z,57.57901
2022-09-20T07:38:44.765Z,56.49539
2022-09-20T07:43:46.196Z,53.78483
2022-09-20T07:48:47.893Z,57.66343
2022-09-20T07:53:49.310Z,55.09183
2022-09-20T07:58:52.538Z,51.48814
2022-09-20T08:03:54.165Z,52.59588
2022-09-20T08:08:55.913Z,50.08295
2022-09-20T08:14:17.806Z,51.81406
2022-09-20T08:19:21.060Z,49.54648
2022-09-20T08:24:22.562Z,51.93294
2022-09-20T08:29:24.481Z,49.12529
2022-09-20T08:34:26.031Z,48.70566
2022-09-20T08:39:58.206Z,45.7683
2022-09-20T08:45:00.800Z,45.43605
2022-09-20T08:50:08.949Z,50.27132
2022-09-20T08:55:11.189Z,44.82704
2022-09-20T09:00:13.169Z,43.0091
2022-09-20T09:05:14.964Z,40.97812
2022-09-20T09:10:16.668Z,44.0001
2022-09-20T09:15:18.422Z,40.69439
2022-09-20T09:20:20.750Z,38.62404
2022-09-20T09:25:22.489Z,39.65579
2022-09-20T09:30:24.200Z,39.89681
2022-09-20T09:35:25.933Z,36.59045
2022-09-20T09:40:27.509Z,36.53774
2022-09-20T09:45:29.430Z,35.52195
2022-09-20T09:50:31.405Z,34.92355
2022-09-20T09:55:32.867Z,32.9215
2022-09-20T10:00:34.448Z,34.11222
2022-09-20T10:05:36.225Z,34.03251
2022-09-20T10:10:37.945Z,30.11325
2022-09-20T10:15:39.547Z,29.25392
2022-09-20T10:20:41.854Z,29.86825
2022-09-20T10:25:43.645Z,33.54303
2022-09-20T10:30:45.389Z,30.8356
2022-09-20T10:35:47.200Z,31.13229
2022-09-20T10:40:48.971Z,32.25323
2022-09-20T10:46:20.540Z,30.7806
2022-09-20T10:51:29.511Z,31.09815
2022-09-20T10:56:31.175Z,31.14537
2022-09-20T11:01:32.801Z,30.14429
2022-09-20T11:06:34.552Z,31.06723
2022-09-20T11:11:36.040Z,30.65601
2022-09-20T11:16:37.583Z,28.93033
2022-09-20T11:21:39.638Z,27.81366
2022-09-20T11:26:41.090Z,27.57186
2022-09-20T11:31:42.591Z,28.32392
2022-09-20T11:36:44.185Z,30.01365
2022-09-20T11:41:45.735Z,28.50572
2022-09-20T11:46:47.183Z,28.33016
2022-09-20T11:51:48.815Z,29.51862
2022-09-20T11:56:50.285Z,29.31535
2022-09-20T12:01:51.782Z,28.63364
2022-09-20T12:06:53.448Z,29.49661
2022-09-20T12:11:55.162Z,26.84156
2022-09-20T12:16:56.617Z,27.11803
2022-09-20T12:21:59.570Z,27.58612
2022-09-20T12:27:01.053Z,25.83394
2022-09-20T12:32:02.822Z,27.02627
2022-09-20T12:37:04.430Z,26.42986
2022-09-20T12:42:05.996Z,26.58934
2022-09-20T12:47:07.669Z,27.57554
2022-09-20T12:52:09.330Z,25.86715
2022-09-20T12:57:10.946Z,26.61511
2022-09-20T13:02:12.471Z,25.45249
2022-09-20T13:07:14.060Z,26.64751
2022-09-20T13:12:15.629Z,26.11019
2022-09-20T13:17:17.250Z,26.62807
2022-09-20T13:22:19.338Z,25.89233
2022-09-20T13:27:20.796Z,25.67174
2022-09-20T13:32:22.350Z,26.61942
2022-09-20T13:37:23.952Z,25.30368
2022-09-20T13:42:25.718Z,25.25044
2022-09-20T13:47:27.345Z,27.44106
2022-09-20T13:52:29.296Z,26.10139
2022-09-20T13:57:30.760Z,26.70744
2022-09-20T14:02:32.526Z,26.20986
2022-09-20T14:07:34.396Z,28.06824
2022-09-20T14:12:36.135Z,28.1883
2022-09-20T14:17:37.903Z,28.65044
2022-09-20T14:22:40.911Z,28.20347
2022-09-20T14:27:42.628Z,29.10757
2022-09-20T14:32:44.043Z,28.6293
2022-09-20T14:37:45.609Z,27.66596
2022-09-20T14:42:47.193Z,29.41423
2022-09-20T14:47:48.704Z,28.74852
2022-09-20T14:52:50.473Z,36.41772
2022-09-20T14:57:51.914Z,51.3703
2022-09-20T15:02:53.625Z,57.05987
2022-09-20T15:07:55.347Z,56.89214
2022-09-20T15:12:56.999Z,57.36961
2022-09-20T15:17:58.456Z,58.34893
2022-09-20T15:23:00.320Z,57.07439
2022-09-20T15:28:01.726Z,59.14537
2022-09-20T15:33:03.334Z,61.12289
2022-09-20T15:38:05.111Z,60.18659
2022-09-20T15:43:06.791Z,60.05403
2022-09-20T15:48:08.557Z,61.26165
2022-09-20T15:53:10.537Z,61.53707
2022-09-20T15:58:12.287Z,62.38173
2022-09-20T16:03:14.031Z,63.64177
2022-09-20T16:08:15.767Z,64.69735
2022-09-20T16:13:17.543Z,65.79709
2022-09-20T16:18:19.182Z,64.95414
2022-09-20T16:23:25.838Z,65.43385
2022-09-20T16:28:27.805Z,65.17851
2022-09-20T16:33:29.581Z,64.90588
2022-09-20T16:38:31.333Z,67.09948
2022-09-20T16:43:33.021Z,66.42281
2022-09-20T16:48:34.752Z,67.12971
2022-09-20T16:53:36.767Z,66.48618
2022-09-20T16:58:38.493Z,69.34177
2022-09-20T17:03:40.201Z,67.7585
2022-09-20T17:08:41.791Z,69.1346
2022-09-20T17:13:43.330Z,70.9243
2022-09-20T17:18:45.051Z,72.94533
2022-09-20T17:23:50.765Z,71.76479
2022-09-20T17:28:53.025Z,73.31685
2022-09-20T17:33:54.772Z,73.75422
2022-09-20T17:38:59.413Z,74.63939
2022-09-20T17:44:03.144Z,74.66681
2022-09-20T17:49:04.684Z,73.42753
2022-09-20T17:54:06.445Z,70.93211
2022-09-20T17:59:07.887Z,75.11796
2022-09-20T18:04:09.667Z,75.4813
2022-09-20T18:09:11.439Z,74.48931
2022-09-20T18:14:13.167Z,74.50989
2022-09-20T18:19:14.936Z,75.52871
2022-09-20T18:24:16.816Z,77.0324
2022-09-20T18:29:18.543Z,77.02071
2022-09-20T18:34:20.278Z,75.20005
2022-09-20T18:39:22.174Z,74.36552
2022-09-20T18:44:23.893Z,75.99997
2022-09-20T18:49:25.517Z,75.03006
2022-09-20T18:54:27.369Z,76.7836
2022-09-20T18:59:28.989Z,77.78217
2022-09-20T19:04:30.645Z,77.54294
2022-09-20T19:09:32.280Z,78.30403
2022-09-20T19:14:33.918Z,78.22182
2022-09-20T19:19:35.539Z,78.937
2022-09-20T19:24:37.454Z,78.83944
2022-09-20T19:29:39.182Z,75.95494
2022-09-20T19:34:40.821Z,73.40695
2022-09-20T19:39:42.595Z,75.71868
2022-09-20T19:44:44.323Z,78.69531
2022-09-20T19:49:46.088Z,77.97814
2022-09-20T19:54:48.028Z,78.50919
2022-09-20T19:59:49.749Z,78.07352
2022-09-20T20:04:51.516Z,78.7275
2022-09-20T20:09:53.322Z,79.10629
2022-09-20T20:14:55.068Z,78.5153
2022-09-20T20:19:56.788Z,78.3058
2022-09-20T20:24:58.881Z,78.73179
2022-09-20T20:30:00.541Z,79.33262
2022-09-20T20:35:02.054Z,79.93888
2022-09-20T20:40:03.625Z,79.67617
2022-09-20T20:45:05.489Z,79.57455
2022-09-20T20:50:06.914Z,79.64736
2022-09-20T20:55:09.082Z,79.25156
2022-09-20T21:00:10.948Z,79.78503
2022-09-20T21:05:12.856Z,78.45757
2022-09-20T21:10:14.757Z,78.79553
2022-09-20T21:15:16.603Z,79.38285
2022-09-20T21:20:18.500Z,76.39814
2022-09-20T21:25:20.405Z,80.83273
2022-09-20T21:30:21.940Z,80.02087
2022-09-20T21:35:23.351Z,80.60472
2022-09-20T21:40:25.395Z,80.17708
2022-09-20T21:45:26.879Z,80.82402
2022-09-20T21:50:28.642Z,79.43918
2022-09-20T21:55:30.445Z,79.15604
2022-09-20T22:00:32.292Z,81.0339
2022-09-20T22:05:33.963Z,81.93303
2022-09-20T22:10:35.841Z,80.29007
2022-09-20T22:15:37.297Z,82.23095
2022-09-20T22:20:38.788Z,82.26032
2022-09-20T22:25:41.091Z,80.45781
2022-09-20T22:30:42.746Z,81.99238
2022-09-20T22:35:44.401Z,83.68306
2022-09-20T22:40:46.376Z,83.83484
2022-09-20T22:45:48.412Z,81.09491
2022-09-20T22:50:49.848Z,82.03157
2022-09-20T22:55:51.664Z,80.79617
2022-09-20T23:00:53.476Z,83.29642
2022-09-20T23:05:55.253Z,84.51348
2022-09-20T23:10:56.716Z,83.53587
2022-09-20T23:15:58.462Z,82.94094
2022-09-20T23:21:00.123Z,83.24724
2022-09-20T23:26:02.111Z,81.46368
2022-09-20T23:31:04.677Z,83.08327
2022-09-20T23:36:06.343Z,83.91221
2022-09-20T23:41:07.898Z,83.77449
2022-09-20T23:46:09.525Z,81.55315
2022-09-20T23:51:11.090Z,84.19296
2022-09-20T23:56:13.105Z,82.54791
